sensor_id;sensor_type;location;lat;lon;timestamp;P1;durP1;ratioP1;P2;durP2;ratioP2
80379;SDS011;69690;48.158;17.134;2023-07-22T00:02:50;8.73;;;7.97;;
80379;SDS011;69690;48.158;17.134;2023-07-22T00:07:51;7.95;;;7.22;;
80379;SDS011;69690;48.158;17.134;2023-07-22T00:12:53;7.03;;;6.40;;
80379;SDS011;69690;48.158;17.134;2023-07-22T00:17:54;8.95;;;8.25;;
80379;SDS011;69690;48.158;17.134;2023-07-22T00:22:56;7.82;;;7.12;;
80379;SDS011;69690;48.158;17.134;2023-07-22T00:27:58;7.32;;;5.68;;
80379;SDS011;69690;48.158;17.134;2023-07-22T00:32:59;6.80;;;5.93;;
80379;SDS011;69690;48.158;17.134;2023-07-22T00:38:01;7.53;;;6.90;;
80379;SDS011;69690;48.158;17.134;2023-07-22T00:43:02;13.73;;;12.37;;
80379;SDS011;69690;48.158;17.134;2023-07-22T00:48:05;6.32;;;5.82;;
80379;SDS011;69690;48.158;17.134;2023-07-22T00:53:07;9.95;;;9.05;;
80379;SDS011;69690;48.158;17.134;2023-07-22T00:58:09;5.45;;;5.05;;
80379;SDS011;69690;48.158;17.134;2023-07-22T01:03:10;10.88;;;5.25;;
80379;SDS011;69690;48.158;17.134;2023-07-22T01:08:11;6.10;;;5.60;;
80379;SDS011;69690;48.158;17.134;2023-07-22T01:13:12;6.53;;;5.20;;
80379;SDS011;69690;48.158;17.134;2023-07-22T01:18:14;5.95;;;5.22;;
80379;SDS011;69690;48.158;17.134;2023-07-22T01:23:16;5.50;;;5.00;;
80379;SDS011;69690;48.158;17.134;2023-07-22T01:28:17;5.50;;;5.00;;
80379;SDS011;69690;48.158;17.134;2023-07-22T01:33:23;5.35;;;4.85;;
80379;SDS011;69690;48.158;17.134;2023-07-22T01:38:24;5.20;;;4.70;;
80379;SDS011;69690;48.158;17.134;2023-07-22T01:43:25;5.47;;;4.90;;
80379;SDS011;69690;48.158;17.134;2023-07-22T01:48:26;6.35;;;3.90;;
80379;SDS011;69690;48.158;17.134;2023-07-22T01:53:28;5.10;;;3.70;;
80379;SDS011;69690;48.158;17.134;2023-07-22T01:58:30;3.70;;;3.40;;
80379;SDS011;69690;48.158;17.134;2023-07-22T02:03:32;3.55;;;3.25;;
80379;SDS011;69690;48.158;17.134;2023-07-22T02:08:33;3.75;;;3.42;;
80379;SDS011;69690;48.158;17.134;2023-07-22T02:13:35;3.58;;;3.28;;
80379;SDS011;69690;48.158;17.134;2023-07-22T02:18:36;4.75;;;3.20;;
80379;SDS011;69690;48.158;17.134;2023-07-22T02:23:37;5.75;;;5.25;;
80379;SDS011;69690;48.158;17.134;2023-07-22T02:28:39;3.83;;;3.50;;
80379;SDS011;69690;48.158;17.134;2023-07-22T02:33:40;5.03;;;4.50;;
80379;SDS011;69690;48.158;17.134;2023-07-22T02:38:42;5.65;;;3.45;;
80379;SDS011;69690;48.158;17.134;2023-07-22T02:43:46;4.05;;;3.37;;
80379;SDS011;69690;48.158;17.134;2023-07-22T02:48:48;4.60;;;3.55;;
80379;SDS011;69690;48.158;17.134;2023-07-22T02:53:49;3.58;;;3.30;;
80379;SDS011;69690;48.158;17.134;2023-07-22T02:58:51;3.65;;;3.35;;
80379;SDS011;69690;48.158;17.134;2023-07-22T03:03:53;4.85;;;3.65;;
80379;SDS011;69690;48.158;17.134;2023-07-22T03:08:54;4.22;;;3.83;;
80379;SDS011;69690;48.158;17.134;2023-07-22T03:13:58;4.82;;;3.70;;
80379;SDS011;69690;48.158;17.134;2023-07-22T03:19:00;4.78;;;3.25;;
80379;SDS011;69690;48.158;17.134;2023-07-22T03:24:01;3.28;;;2.97;;
80379;SDS011;69690;48.158;17.134;2023-07-22T03:29:03;3.47;;;3.17;;
80379;SDS011;69690;48.158;17.134;2023-07-22T03:34:05;3.45;;;3.15;;
80379;SDS011;69690;48.158;17.134;2023-07-22T03:39:07;3.33;;;3.03;;
80379;SDS011;69690;48.158;17.134;2023-07-22T03:44:09;3.03;;;2.83;;
80379;SDS011;69690;48.158;17.134;2023-07-22T03:49:10;3.28;;;2.97;;
80379;SDS011;69690;48.158;17.134;2023-07-22T03:54:11;4.70;;;3.42;;
80379;SDS011;69690;48.158;17.134;2023-07-22T03:59:12;3.50;;;3.20;;
80379;SDS011;69690;48.158;17.134;2023-07-22T04:04:14;3.40;;;3.05;;
80379;SDS011;69690;48.158;17.134;2023-07-22T04:09:16;3.22;;;2.92;;
80379;SDS011;69690;48.158;17.134;2023-07-22T04:14:17;3.22;;;2.92;;
80379;SDS011;69690;48.158;17.134;2023-07-22T04:19:18;3.47;;;2.87;;
80379;SDS011;69690;48.158;17.134;2023-07-22T04:24:19;3.15;;;2.80;;
80379;SDS011;69690;48.158;17.134;2023-07-22T04:29:21;3.37;;;2.65;;
80379;SDS011;69690;48.158;17.134;2023-07-22T04:34:22;3.25;;;2.67;;
80379;SDS011;69690;48.158;17.134;2023-07-22T04:39:26;3.10;;;2.78;;
80379;SDS011;69690;48.158;17.134;2023-07-22T04:44:27;3.00;;;2.40;;
80379;SDS011;69690;48.158;17.134;2023-07-22T04:49:28;2.30;;;2.20;;
80379;SDS011;69690;48.158;17.134;2023-07-22T04:54:29;3.53;;;2.17;;
80379;SDS011;69690;48.158;17.134;2023-07-22T04:59:31;2.12;;;1.92;;
80379;SDS011;69690;48.158;17.134;2023-07-22T05:04:32;3.97;;;2.30;;
80379;SDS011;69690;48.158;17.134;2023-07-22T05:09:33;2.58;;;2.22;;
80379;SDS011;69690;48.158;17.134;2023-07-22T05:14:34;2.20;;;2.00;;
80379;SDS011;69690;48.158;17.134;2023-07-22T05:19:36;3.17;;;2.10;;
80379;SDS011;69690;48.158;17.134;2023-07-22T05:24:37;2.80;;;2.50;;
80379;SDS011;69690;48.158;17.134;2023-07-22T05:29:39;2.97;;;2.30;;
80379;SDS011;69690;48.158;17.134;2023-07-22T05:34:40;4.97;;;2.30;;
80379;SDS011;69690;48.158;17.134;2023-07-22T05:39:41;2.28;;;2.08;;
80379;SDS011;69690;48.158;17.134;2023-07-22T05:44:42;2.62;;;2.10;;
80379;SDS011;69690;48.158;17.134;2023-07-22T05:49:44;2.72;;;2.08;;
80379;SDS011;69690;48.158;17.134;2023-07-22T05:54:45;3.97;;;2.10;;
80379;SDS011;69690;48.158;17.134;2023-07-22T05:59:47;2.40;;;2.20;;
80379;SDS011;69690;48.158;17.134;2023-07-22T06:04:48;2.85;;;2.08;;
80379;SDS011;69690;48.158;17.134;2023-07-22T06:09:49;2.80;;;2.08;;
80379;SDS011;69690;48.158;17.134;2023-07-22T06:14:50;2.30;;;2.10;;
80379;SDS011;69690;48.158;17.134;2023-07-22T06:19:51;2.25;;;2.00;;
80379;SDS011;69690;48.158;17.134;2023-07-22T06:24:53;5.30;;;2.30;;
80379;SDS011;69690;48.158;17.134;2023-07-22T06:29:54;3.75;;;2.20;;
80379;SDS011;69690;48.158;17.134;2023-07-22T06:34:58;2.58;;;2.20;;
80379;SDS011;69690;48.158;17.134;2023-07-22T06:39:59;2.83;;;2.10;;
80379;SDS011;69690;48.158;17.134;2023-07-22T06:45:01;3.30;;;2.33;;
80379;SDS011;69690;48.158;17.134;2023-07-22T06:50:03;2.33;;;1.90;;
80379;SDS011;69690;48.158;17.134;2023-07-22T06:55:06;2.65;;;2.17;;
80379;SDS011;69690;48.158;17.134;2023-07-22T07:00:08;2.55;;;2.35;;
80379;SDS011;69690;48.158;17.134;2023-07-22T07:05:10;3.00;;;2.42;;
80379;SDS011;69690;48.158;17.134;2023-07-22T07:10:11;3.17;;;1.95;;
80379;SDS011;69690;48.158;17.134;2023-07-22T07:15:12;2.67;;;2.10;;
80379;SDS011;69690;48.158;17.134;2023-07-22T07:20:14;5.00;;;2.30;;
80379;SDS011;69690;48.158;17.134;2023-07-22T07:25:15;3.80;;;2.40;;
80379;SDS011;69690;48.158;17.134;2023-07-22T07:30:17;3.47;;;2.12;;
80379;SDS011;69690;48.158;17.134;2023-07-22T07:35:18;3.05;;;2.40;;
80379;SDS011;69690;48.158;17.134;2023-07-22T07:40:19;2.40;;;2.20;;
80379;SDS011;69690;48.158;17.134;2023-07-22T07:45:21;2.20;;;2.10;;
80379;SDS011;69690;48.158;17.134;2023-07-22T07:50:22;2.20;;;2.00;;
80379;SDS011;69690;48.158;17.134;2023-07-22T07:55:23;3.17;;;2.30;;
80379;SDS011;69690;48.158;17.134;2023-07-22T08:00:25;1.58;;;1.40;;
80379;SDS011;69690;48.158;17.134;2023-07-22T08:05:26;2.00;;;1.80;;
80379;SDS011;69690;48.158;17.134;2023-07-22T08:10:27;3.10;;;1.87;;
80379;SDS011;69690;48.158;17.134;2023-07-22T08:15:29;2.05;;;1.87;;
80379;SDS011;69690;48.158;17.134;2023-07-22T08:20:30;1.98;;;1.62;;
80379;SDS011;69690;48.158;17.134;2023-07-22T08:25:31;2.60;;;1.70;;
80379;SDS011;69690;48.158;17.134;2023-07-22T08:30:32;2.33;;;1.50;;
80379;SDS011;69690;48.158;17.134;2023-07-22T08:35:34;1.92;;;1.65;;
80379;SDS011;69690;48.158;17.134;2023-07-22T08:40:37;1.70;;;1.60;;
80379;SDS011;69690;48.158;17.134;2023-07-22T08:45:40;3.65;;;1.90;;
80379;SDS011;69690;48.158;17.134;2023-07-22T08:50:49;1.65;;;1.55;;
80379;SDS011;69690;48.158;17.134;2023-07-22T08:56:08;2.25;;;1.55;;
80379;SDS011;69690;48.158;17.134;2023-07-22T09:01:11;1.77;;;1.60;;
80379;SDS011;69690;48.158;17.134;2023-07-22T09:06:12;2.33;;;1.65;;
80379;SDS011;69690;48.158;17.134;2023-07-22T09:11:14;1.87;;;1.60;;
80379;SDS011;69690;48.158;17.134;2023-07-22T09:16:16;2.62;;;1.40;;
80379;SDS011;69690;48.158;17.134;2023-07-22T09:21:19;2.50;;;1.60;;
80379;SDS011;69690;48.158;17.134;2023-07-22T09:26:20;2.28;;;1.62;;
80379;SDS011;69690;48.158;17.134;2023-07-22T09:31:22;1.60;;;1.50;;
80379;SDS011;69690;48.158;17.134;2023-07-22T09:36:27;2.60;;;1.85;;
80379;SDS011;69690;48.158;17.134;2023-07-22T09:41:29;1.60;;;1.50;;
80379;SDS011;69690;48.158;17.134;2023-07-22T09:46:33;2.62;;;1.90;;
80379;SDS011;69690;48.158;17.134;2023-07-22T09:51:35;1.85;;;1.48;;
80379;SDS011;69690;48.158;17.134;2023-07-22T09:56:46;2.15;;;1.87;;
80379;SDS011;69690;48.158;17.134;2023-07-22T10:01:49;1.70;;;1.60;;
80379;SDS011;69690;48.158;17.134;2023-07-22T10:06:52;4.53;;;4.22;;
80379;SDS011;69690;48.158;17.134;2023-07-22T10:11:53;4.80;;;4.40;;
80379;SDS011;69690;48.158;17.134;2023-07-22T10:16:54;4.87;;;3.17;;
80379;SDS011;69690;48.158;17.134;2023-07-22T10:21:56;5.95;;;3.62;;
80379;SDS011;69690;48.158;17.134;2023-07-22T10:26:57;2.22;;;1.95;;
80379;SDS011;69690;48.158;17.134;2023-07-22T10:31:59;1.92;;;1.77;;
80379;SDS011;69690;48.158;17.134;2023-07-22T10:37:00;2.30;;;1.85;;
80379;SDS011;69690;48.158;17.134;2023-07-22T10:42:02;2.90;;;1.98;;
80379;SDS011;69690;48.158;17.134;2023-07-22T10:47:07;1.65;;;1.55;;
80379;SDS011;69690;48.158;17.134;2023-07-22T10:52:10;2.47;;;1.98;;
80379;SDS011;69690;48.158;17.134;2023-07-22T11:02:26;2.53;;;1.70;;
80379;SDS011;69690;48.158;17.134;2023-07-22T11:07:29;2.60;;;2.40;;
80379;SDS011;69690;48.158;17.134;2023-07-22T11:12:43;2.78;;;2.30;;
80379;SDS011;69690;48.158;17.134;2023-07-22T11:17:46;2.78;;;2.60;;
80379;SDS011;69690;48.158;17.134;2023-07-22T11:22:50;2.60;;;2.40;;
80379;SDS011;69690;48.158;17.134;2023-07-22T11:27:51;2.37;;;2.28;;
80379;SDS011;69690;48.158;17.134;2023-07-22T11:32:57;2.42;;;2.33;;
80379;SDS011;69690;48.158;17.134;2023-07-22T11:38:05;3.30;;;2.25;;
80379;SDS011;69690;48.158;17.134;2023-07-22T11:43:06;2.42;;;2.20;;
80379;SDS011;69690;48.158;17.134;2023-07-22T11:48:09;2.28;;;2.10;;
80379;SDS011;69690;48.158;17.134;2023-07-22T11:53:11;2.00;;;1.87;;
80379;SDS011;69690;48.158;17.134;2023-07-22T11:58:13;2.67;;;1.70;;
80379;SDS011;69690;48.158;17.134;2023-07-22T12:03:15;1.90;;;1.80;;
80379;SDS011;69690;48.158;17.134;2023-07-22T12:08:16;2.67;;;2.47;;
80379;SDS011;69690;48.158;17.134;2023-07-22T12:13:17;3.53;;;2.28;;
80379;SDS011;69690;48.158;17.134;2023-07-22T12:18:18;2.28;;;1.87;;
80379;SDS011;69690;48.158;17.134;2023-07-22T12:23:20;2.00;;;1.90;;
80379;SDS011;69690;48.158;17.134;2023-07-22T12:28:23;1.80;;;1.70;;
80379;SDS011;69690;48.158;17.134;2023-07-22T12:33:24;2.78;;;2.58;;
80379;SDS011;69690;48.158;17.134;2023-07-22T12:38:26;3.08;;;2.50;;
80379;SDS011;69690;48.158;17.134;2023-07-22T12:43:27;2.15;;;1.95;;
80379;SDS011;69690;48.158;17.134;2023-07-22T12:48:28;2.00;;;1.90;;
80379;SDS011;69690;48.158;17.134;2023-07-22T12:53:29;2.78;;;1.95;;
80379;SDS011;69690;48.158;17.134;2023-07-22T12:58:31;2.42;;;2.22;;
80379;SDS011;69690;48.158;17.134;2023-07-22T13:03:32;2.35;;;2.08;;
80379;SDS011;69690;48.158;17.134;2023-07-22T13:08:33;2.60;;;1.70;;
80379;SDS011;69690;48.158;17.134;2023-07-22T13:13:35;2.25;;;2.05;;
80379;SDS011;69690;48.158;17.134;2023-07-22T13:18:36;5.12;;;2.00;;
80379;SDS011;69690;48.158;17.134;2023-07-22T13:23:38;2.90;;;2.70;;
80379;SDS011;69690;48.158;17.134;2023-07-22T13:28:39;1.90;;;1.80;;
80379;SDS011;69690;48.158;17.134;2023-07-22T13:33:40;2.62;;;2.20;;
80379;SDS011;69690;48.158;17.134;2023-07-22T13:38:41;2.53;;;1.90;;
80379;SDS011;69690;48.158;17.134;2023-07-22T13:43:43;3.58;;;1.90;;
80379;SDS011;69690;48.158;17.134;2023-07-22T13:48:44;2.05;;;1.95;;
80379;SDS011;69690;48.158;17.134;2023-07-22T13:53:46;2.08;;;1.80;;
80379;SDS011;69690;48.158;17.134;2023-07-22T13:58:48;2.45;;;2.03;;
80379;SDS011;69690;48.158;17.134;2023-07-22T14:03:49;2.15;;;1.90;;
80379;SDS011;69690;48.158;17.134;2023-07-22T14:08:50;2.10;;;1.90;;
80379;SDS011;69690;48.158;17.134;2023-07-22T14:13:51;2.67;;;1.92;;
80379;SDS011;69690;48.158;17.134;2023-07-22T14:18:53;1.90;;;1.80;;
80379;SDS011;69690;48.158;17.134;2023-07-22T14:23:55;2.25;;;1.90;;
80379;SDS011;69690;48.158;17.134;2023-07-22T14:28:56;2.55;;;2.35;;
80379;SDS011;69690;48.158;17.134;2023-07-22T14:33:58;2.00;;;1.90;;
80379;SDS011;69690;48.158;17.134;2023-07-22T14:39:00;4.72;;;2.22;;
80379;SDS011;69690;48.158;17.134;2023-07-22T14:44:02;3.28;;;2.90;;
80379;SDS011;69690;48.158;17.134;2023-07-22T14:49:04;3.45;;;2.08;;
80379;SDS011;69690;48.158;17.134;2023-07-22T14:54:09;3.33;;;2.20;;
80379;SDS011;69690;48.158;17.134;2023-07-22T14:59:11;2.50;;;2.00;;
80379;SDS011;69690;48.158;17.134;2023-07-22T15:04:15;2.40;;;2.20;;
80379;SDS011;69690;48.158;17.134;2023-07-22T15:09:16;2.10;;;2.00;;
80379;SDS011;69690;48.158;17.134;2023-07-22T15:14:18;2.05;;;1.90;;
80379;SDS011;69690;48.158;17.134;2023-07-22T15:19:20;2.22;;;1.90;;
80379;SDS011;69690;48.158;17.134;2023-07-22T15:24:21;3.08;;;2.60;;
80379;SDS011;69690;48.158;17.134;2023-07-22T15:29:22;2.50;;;2.30;;
80379;SDS011;69690;48.158;17.134;2023-07-22T15:34:24;2.83;;;2.10;;
80379;SDS011;69690;48.158;17.134;2023-07-22T15:39:29;2.00;;;1.90;;
80379;SDS011;69690;48.158;17.134;2023-07-22T15:44:31;2.42;;;2.10;;
80379;SDS011;69690;48.158;17.134;2023-07-22T15:49:33;3.42;;;2.08;;
80379;SDS011;69690;48.158;17.134;2023-07-22T15:54:35;2.72;;;2.53;;
80379;SDS011;69690;48.158;17.134;2023-07-22T15:59:36;2.80;;;2.60;;
80379;SDS011;69690;48.158;17.134;2023-07-22T16:04:37;3.08;;;2.60;;
80379;SDS011;69690;48.158;17.134;2023-07-22T16:09:38;3.20;;;2.95;;
80379;SDS011;69690;48.158;17.134;2023-07-22T16:14:40;2.75;;;2.33;;
80379;SDS011;69690;48.158;17.134;2023-07-22T16:19:41;2.50;;;2.30;;
80379;SDS011;69690;48.158;17.134;2023-07-22T16:24:42;2.62;;;2.40;;
80379;SDS011;69690;48.158;17.134;2023-07-22T16:29:44;2.65;;;2.45;;
80379;SDS011;69690;48.158;17.134;2023-07-22T16:34:45;2.90;;;2.50;;
80379;SDS011;69690;48.158;17.134;2023-07-22T16:39:46;6.62;;;4.80;;
80379;SDS011;69690;48.158;17.134;2023-07-22T16:44:48;22.58;;;20.52;;
80379;SDS011;69690;48.158;17.134;2023-07-22T16:49:49;8.07;;;7.30;;
80379;SDS011;69690;48.158;17.134;2023-07-22T16:54:50;2.67;;;2.47;;
80379;SDS011;69690;48.158;17.134;2023-07-22T16:59:52;3.50;;;3.20;;
80379;SDS011;69690;48.158;17.134;2023-07-22T17:04:53;2.80;;;2.50;;
80379;SDS011;69690;48.158;17.134;2023-07-22T17:09:55;3.05;;;2.75;;
80379;SDS011;69690;48.158;17.134;2023-07-22T17:14:56;3.90;;;3.60;;
80379;SDS011;69690;48.158;17.134;2023-07-22T17:19:58;3.83;;;3.53;;
80379;SDS011;69690;48.158;17.134;2023-07-22T17:24:59;6.07;;;5.57;;
80379;SDS011;69690;48.158;17.134;2023-07-22T17:30:00;2.87;;;2.62;;
80379;SDS011;69690;48.158;17.134;2023-07-22T17:35:01;2.65;;;2.30;;
80379;SDS011;69690;48.158;17.134;2023-07-22T17:40:03;6.00;;;2.47;;
80379;SDS011;69690;48.158;17.134;2023-07-22T17:45:05;2.50;;;2.30;;
80379;SDS011;69690;48.158;17.134;2023-07-22T17:50:08;3.12;;;2.33;;
80379;SDS011;69690;48.158;17.134;2023-07-22T17:55:09;3.08;;;2.78;;
80379;SDS011;69690;48.158;17.134;2023-07-22T18:00:11;3.42;;;2.62;;
80379;SDS011;69690;48.158;17.134;2023-07-22T18:05:15;3.17;;;2.87;;
80379;SDS011;69690;48.158;17.134;2023-07-22T18:10:16;5.28;;;3.60;;
80379;SDS011;69690;48.158;17.134;2023-07-22T18:15:18;3.40;;;2.87;;
80379;SDS011;69690;48.158;17.134;2023-07-22T18:20:19;3.20;;;2.90;;
80379;SDS011;69690;48.158;17.134;2023-07-22T18:25:22;5.18;;;3.10;;
80379;SDS011;69690;48.158;17.134;2023-07-22T18:30:24;2.78;;;2.47;;
80379;SDS011;69690;48.158;17.134;2023-07-22T18:35:25;5.12;;;3.05;;
80379;SDS011;69690;48.158;17.134;2023-07-22T18:40:27;3.55;;;2.90;;
80379;SDS011;69690;48.158;17.134;2023-07-22T18:45:29;4.18;;;2.72;;
80379;SDS011;69690;48.158;17.134;2023-07-22T18:50:31;4.20;;;3.25;;
80379;SDS011;69690;48.158;17.134;2023-07-22T18:55:36;3.50;;;3.05;;
80379;SDS011;69690;48.158;17.134;2023-07-22T19:00:37;3.42;;;2.90;;
80379;SDS011;69690;48.158;17.134;2023-07-22T19:05:38;3.72;;;2.80;;
80379;SDS011;69690;48.158;17.134;2023-07-22T19:10:43;3.05;;;2.72;;
80379;SDS011;69690;48.158;17.134;2023-07-22T19:15:49;3.33;;;3.00;;
80379;SDS011;69690;48.158;17.134;2023-07-22T19:20:59;3.25;;;2.50;;
80379;SDS011;69690;48.158;17.134;2023-07-22T19:26:02;4.07;;;2.70;;
80379;SDS011;69690;48.158;17.134;2023-07-22T19:31:03;5.85;;;3.45;;
80379;SDS011;69690;48.158;17.134;2023-07-22T19:36:08;3.85;;;3.40;;
80379;SDS011;69690;48.158;17.134;2023-07-22T19:41:12;3.53;;;3.20;;
80379;SDS011;69690;48.158;17.134;2023-07-22T19:46:14;5.93;;;3.60;;
80379;SDS011;69690;48.158;17.134;2023-07-22T19:51:17;4.25;;;3.60;;
80379;SDS011;69690;48.158;17.134;2023-07-22T19:56:18;3.83;;;3.40;;
80379;SDS011;69690;48.158;17.134;2023-07-22T20:01:20;5.53;;;3.60;;
80379;SDS011;69690;48.158;17.134;2023-07-22T20:06:21;3.97;;;3.67;;
80379;SDS011;69690;48.158;17.134;2023-07-22T20:11:22;4.93;;;3.85;;
80379;SDS011;69690;48.158;17.134;2023-07-22T20:16:24;4.72;;;3.70;;
80379;SDS011;69690;48.158;17.134;2023-07-22T20:21:25;4.45;;;4.05;;
80379;SDS011;69690;48.158;17.134;2023-07-22T20:26:26;4.18;;;3.78;;
80379;SDS011;69690;48.158;17.134;2023-07-22T20:31:28;3.80;;;3.50;;
80379;SDS011;69690;48.158;17.134;2023-07-22T20:36:29;3.97;;;3.67;;
80379;SDS011;69690;48.158;17.134;2023-07-22T20:41:30;5.20;;;3.75;;
80379;SDS011;69690;48.158;17.134;2023-07-22T20:46:31;6.28;;;4.10;;
80379;SDS011;69690;48.158;17.134;2023-07-22T20:51:33;6.47;;;4.80;;
80379;SDS011;69690;48.158;17.134;2023-07-22T20:56:34;5.10;;;4.60;;
80379;SDS011;69690;48.158;17.134;2023-07-22T21:01:35;4.93;;;4.50;;
80379;SDS011;69690;48.158;17.134;2023-07-22T21:06:36;6.80;;;5.95;;
80379;SDS011;69690;48.158;17.134;2023-07-22T21:11:37;4.45;;;4.10;;
80379;SDS011;69690;48.158;17.134;2023-07-22T21:16:39;5.93;;;3.87;;
80379;SDS011;69690;48.158;17.134;2023-07-22T21:21:40;10.88;;;3.80;;
80379;SDS011;69690;48.158;17.134;2023-07-22T21:26:41;6.72;;;4.05;;
80379;SDS011;69690;48.158;17.134;2023-07-22T21:31:43;4.55;;;3.90;;
80379;SDS011;69690;48.158;17.134;2023-07-22T21:36:44;4.70;;;4.10;;
80379;SDS011;69690;48.158;17.134;2023-07-22T21:41:45;3.53;;;3.20;;
80379;SDS011;69690;48.158;17.134;2023-07-22T21:46:47;6.30;;;3.55;;
80379;SDS011;69690;48.158;17.134;2023-07-22T21:51:48;4.62;;;4.05;;
80379;SDS011;69690;48.158;17.134;2023-07-22T21:56:50;4.53;;;4.07;;
80379;SDS011;69690;48.158;17.134;2023-07-22T22:01:51;4.35;;;3.95;;
80379;SDS011;69690;48.158;17.134;2023-07-22T22:06:53;4.72;;;4.12;;
80379;SDS011;69690;48.158;17.134;2023-07-22T22:11:54;5.18;;;4.10;;
80379;SDS011;69690;48.158;17.134;2023-07-22T22:16:55;4.82;;;4.18;;
80379;SDS011;69690;48.158;17.134;2023-07-22T22:21:56;4.30;;;3.90;;
80379;SDS011;69690;48.158;17.134;2023-07-22T22:26:59;4.68;;;4.28;;
80379;SDS011;69690;48.158;17.134;2023-07-22T22:32:00;5.43;;;3.65;;
80379;SDS011;69690;48.158;17.134;2023-07-22T22:37:01;5.70;;;4.37;;
80379;SDS011;69690;48.158;17.134;2023-07-22T22:42:03;6.62;;;3.97;;
80379;SDS011;69690;48.158;17.134;2023-07-22T22:47:04;4.87;;;4.35;;
80379;SDS011;69690;48.158;17.134;2023-07-22T22:52:06;4.22;;;3.70;;
80379;SDS011;69690;48.158;17.134;2023-07-22T22:57:07;5.68;;;3.92;;
80379;SDS011;69690;48.158;17.134;2023-07-22T23:02:08;5.00;;;4.25;;
80379;SDS011;69690;48.158;17.134;2023-07-22T23:07:10;5.82;;;4.30;;
80379;SDS011;69690;48.158;17.134;2023-07-22T23:12:12;5.07;;;3.90;;
80379;SDS011;69690;48.158;17.134;2023-07-22T23:17:13;4.80;;;3.83;;
80379;SDS011;69690;48.158;17.134;2023-07-22T23:22:17;3.78;;;3.47;;
80379;SDS011;69690;48.158;17.134;2023-07-22T23:27:18;5.25;;;4.20;;
80379;SDS011;69690;48.158;17.134;2023-07-22T23:32:19;5.12;;;4.65;;
80379;SDS011;69690;48.158;17.134;2023-07-22T23:42:42;4.47;;;3.95;;
80379;SDS011;69690;48.158;17.134;2023-07-22T23:47:43;4.70;;;4.28;;
80379;SDS011;69690;48.158;17.134;2023-07-22T23:52:45;4.82;;;4.22;;
80379;SDS011;69690;48.158;17.134;2023-07-22T23:57:46;5.32;;;4.37;;
